Time;durP1;ratioP1;P1;durP2;ratioP2;P2;SDS_P1;SDS_P2;PMS_P1;PMS_P2;Temp;Humidity;BMP_temperature;BMP_pressure;BME280_temperature;BME280_humidity;BME280_pressure;Samples;Min_cycle;Max_cycle;Signal;HPM_P1;HPM_P2
2024/04/21 00:01:07;;;;;;;3.88;1.10;;;14.50;99.90;;;;;;5408874;26;20000;-65
2024/04/21 00:03:33;;;;;;;1.42;1.00;;;;;;;;;;5393329;26;20349;-65
2024/04/21 00:05:58;;;;;;;1.23;0.70;;;14.40;99.90;;;;;;5413937;26;20077;-65
2024/04/21 00:08:24;;;;;;;2.03;0.43;;;14.20;99.90;;;;;;5399619;26;20000;-65
2024/04/21 00:10:50;;;;;;;0.40;0.40;;;14.40;99.90;;;;;;5404980;26;20007;-65
2024/04/21 00:13:15;;;;;;;1.10;0.47;;;14.40;99.90;;;;;;5410557;26;20503;-66
2024/04/21 00:15:41;;;;;;;1.83;0.60;;;14.40;99.90;;;;;;5414341;26;20004;-65
2024/04/21 00:18:06;;;;;;;0.50;0.40;;;14.40;99.90;;;;;;5406843;26;20412;-65
2024/04/21 00:20:32;;;;;;;1.02;0.50;;;14.20;99.90;;;;;;5414008;26;20011;-65
2024/04/21 00:22:57;;;;;;;2.90;0.55;;;14.20;99.90;;;;;;5411075;26;20098;-65
2024/04/21 00:25:23;;;;;;;0.82;0.50;;;14.20;99.90;;;;;;5398017;26;20014;-66
2024/04/21 00:27:49;;;;;;;2.10;0.20;;;14.20;99.90;;;;;;5410884;26;20008;-65
2024/04/21 00:30:14;;;;;;;1.48;0.30;;;14.10;99.90;;;;;;5406008;26;20028;-65
2024/04/21 00:32:40;;;;;;;1.15;0.40;;;14.10;99.90;;;;;;5400855;26;20007;-65
2024/04/21 00:35:06;;;;;;;3.63;0.47;;;14.00;99.90;;;;;;5401716;26;20003;-65
2024/04/21 00:37:31;;;;;;;1.25;0.52;;;14.10;99.90;;;;;;5392607;26;20012;-65
2024/04/21 00:39:57;;;;;;;1.45;0.40;;;14.00;99.90;;;;;;5394970;26;20000;-65
2024/04/21 00:42:23;;;;;;;0.30;0.20;;;14.00;99.90;;;;;;5411991;26;20090;-65
2024/04/21 00:44:48;;;;;;;1.85;0.30;;;14.00;99.90;;;;;;5416413;26;20454;-66
2024/04/21 00:47:15;;;;;;;1.80;0.50;;;14.00;99.90;;;;;;5417774;26;20010;-66
2024/04/21 00:49:41;;;;;;;0.88;0.30;;;14.00;99.90;;;;;;5415609;26;20340;-65
2024/04/21 00:52:06;;;;;;;0.43;0.20;;;14.00;99.90;;;;;;5417271;26;20015;-65
2024/04/21 00:54:32;;;;;;;0.28;0.20;;;14.00;99.90;;;;;;5417327;26;20013;-65
2024/04/21 00:56:58;;;;;;;1.00;0.30;;;14.00;99.90;;;;;;5413254;26;20015;-65
2024/04/21 00:59:24;;;;;;;0.80;0.40;;;14.00;99.90;;;;;;5402982;26;20000;-65
2024/04/21 01:01:50;;;;;;;2.10;0.30;;;13.90;99.90;;;;;;5409290;26;20000;-66
2024/04/21 01:04:16;;;;;;;4.00;0.38;;;;;;;;;;5413924;26;20333;-65
2024/04/21 01:06:42;;;;;;;0.98;0.20;;;;;;;;;;5400618;26;20007;-65
2024/04/21 01:09:08;;;;;;;0.30;0.20;;;;;;;;;;5403494;26;20522;-65
2024/04/21 01:11:34;;;;;;;1.67;0.28;;;;;;;;;;5400563;26;20049;-65
2024/04/21 01:14:00;;;;;;;0.30;0.20;;;;;;;;;;5410020;26;20446;-66
2024/04/21 01:16:26;;;;;;;0.30;0.10;;;;;;;;;;5392262;26;20000;-66
2024/04/21 01:18:52;;;;;;;0.40;0.20;;;;;;;;;;5414131;26;20000;-65
2024/04/21 01:21:18;;;;;;;0.50;0.30;;;;;;;;;;5401762;26;20011;-65
2024/04/21 01:23:44;;;;;;;0.90;0.25;;;;;;;;;;5410644;26;20457;-65
2024/04/21 01:26:10;;;;;;;0.73;0.20;;;;;;;;;;5400962;26;20079;-65
2024/04/21 01:28:36;;;;;;;1.50;0.10;;;;;;;;;;5416078;26;20072;-65
2024/04/21 01:31:02;;;;;;;1.63;0.30;;;;;;;;;;5399132;26;20000;-65
2024/04/21 01:33:28;;;;;;;0.30;0.30;;;;;;;;;;5413724;26;20047;-65
2024/04/21 01:35:54;;;;;;;0.32;0.20;;;;;;;;;;5398753;26;20014;-65
2024/04/21 01:38:20;;;;;;;0.20;0.13;;;;;;;;;;5417297;26;20018;-65
2024/04/21 01:41:11;;;;;;;1.60;0.20;;;;;;;;;;5416022;26;20000;-65
2024/04/21 01:43:37;;;;;;;0.25;0.20;;;;;;;;;;5401043;26;20312;-65
2024/04/21 01:46:03;;;;;;;0.28;0.22;;;13.90;99.90;;;;;;5415332;26;20011;-65
2024/04/21 01:48:29;;;;;;;1.50;0.40;;;13.50;99.90;;;;;;5394767;26;20012;-65
2024/04/21 01:50:54;;;;;;;0.28;0.10;;;13.60;99.90;;;;;;5413726;26;20003;-65
2024/04/21 01:53:20;;;;;;;1.15;0.30;;;13.60;99.90;;;;;;5402837;26;20032;-65
2024/04/21 01:55:45;;;;;;;0.30;0.28;;;13.50;99.90;;;;;;5404128;26;20024;-65
2024/04/21 01:58:11;;;;;;;0.40;0.20;;;13.60;99.90;;;;;;5413811;26;20038;-65
2024/04/21 02:00:37;;;;;;;1.33;0.20;;;13.50;99.90;;;;;;5416058;26;20011;-65
2024/04/21 02:03:26;;;;;;;0.30;0.30;;;13.50;99.90;;;;;;5407502;26;20018;-65
2024/04/21 02:05:51;;;;;;;1.02;0.20;;;13.40;99.90;;;;;;5406440;26;20003;-65
2024/04/21 02:08:17;;;;;;;0.57;0.30;;;13.30;99.90;;;;;;5410809;26;19999;-65
2024/04/21 02:10:42;;;;;;;0.65;0.35;;;13.30;99.90;;;;;;5407079;26;20141;-65
2024/04/21 02:13:08;;;;;;;0.73;0.35;;;13.40;99.90;;;;;;5405093;26;20014;-65
2024/04/21 02:15:33;;;;;;;0.63;0.20;;;13.40;99.90;;;;;;5411767;26;20007;-65
2024/04/21 02:17:59;;;;;;;0.80;0.40;;;13.30;99.90;;;;;;5416072;26;19999;-65
2024/04/21 02:20:24;;;;;;;0.57;0.20;;;13.30;99.90;;;;;;5410292;26;20011;-65
2024/04/21 02:22:50;;;;;;;1.17;0.22;;;13.30;99.90;;;;;;5414411;26;20008;-65
2024/04/21 02:25:16;;;;;;;0.75;0.32;;;13.30;99.90;;;;;;5413809;26;20013;-65
2024/04/21 02:27:42;;;;;;;0.52;0.40;;;13.30;99.90;;;;;;5414216;26;20007;-65
2024/04/21 02:30:08;;;;;;;0.30;0.20;;;13.20;99.90;;;;;;5411928;26;20088;-65
2024/04/21 02:32:33;;;;;;;0.95;0.30;;;13.30;99.90;;;;;;5401062;26;20001;-65
2024/04/21 02:34:59;;;;;;;0.35;0.35;;;13.30;99.90;;;;;;5396510;26;20000;-65
2024/04/21 02:37:24;;;;;;;0.40;0.20;;;13.30;99.90;;;;;;5402803;26;20004;-65
2024/04/21 02:39:50;;;;;;;0.38;0.30;;;13.20;99.90;;;;;;5393775;26;20023;-65
2024/04/21 02:42:16;;;;;;;1.13;0.22;;;13.20;99.90;;;;;;5414004;26;20004;-65
2024/04/21 02:44:41;;;;;;;1.85;0.38;;;13.10;99.90;;;;;;5398120;26;20004;-65
2024/04/21 02:47:07;;;;;;;0.30;0.20;;;13.10;99.90;;;;;;5408963;26;20445;-65
2024/04/21 02:49:33;;;;;;;0.28;0.15;;;13.10;99.90;;;;;;5414147;26;20453;-65
2024/04/21 02:51:58;;;;;;;0.40;0.15;;;13.10;99.90;;;;;;5406334;26;20014;-65
2024/04/21 02:54:26;;;;;;;1.17;0.28;;;13.10;99.90;;;;;;5403711;26;20004;-65
2024/04/21 02:56:52;;;;;;;0.45;0.25;;;13.10;99.90;;;;;;5401663;26;20049;-65
2024/04/21 02:59:17;;;;;;;0.45;0.10;;;13.00;99.90;;;;;;5407394;26;20331;-65
2024/04/21 03:01:45;;;;;;;0.68;0.38;;;13.10;99.90;;;;;;5397668;26;20000;-65
2024/04/21 03:04:11;;;;;;;0.63;0.38;;;13.00;99.90;;;;;;5391530;26;20338;-65
2024/04/21 03:06:37;;;;;;;0.93;0.30;;;13.00;99.90;;;;;;5400017;26;20019;-65
2024/04/21 03:09:02;;;;;;;1.23;0.30;;;13.10;99.90;;;;;;5405699;26;20107;-65
2024/04/21 03:11:28;;;;;;;0.40;0.22;;;13.10;99.90;;;;;;5415735;26;20018;-65
2024/04/21 03:13:54;;;;;;;2.85;0.38;;;13.00;99.90;;;;;;5413736;26;19999;-65
2024/04/21 03:16:19;;;;;;;0.40;0.20;;;13.00;99.90;;;;;;5413923;26;20013;-65
2024/04/21 03:18:45;;;;;;;0.63;0.50;;;13.00;99.90;;;;;;5415326;26;20011;-65
2024/04/21 03:21:10;;;;;;;0.30;0.30;;;13.00;99.90;;;;;;5407188;26;20011;-65
2024/04/21 03:23:36;;;;;;;1.08;0.30;;;13.00;99.90;;;;;;5400464;26;20016;-65
2024/04/21 03:26:01;;;;;;;1.55;0.52;;;13.00;99.90;;;;;;5387332;26;20015;-65
2024/04/21 03:28:27;;;;;;;1.08;0.40;;;13.10;99.90;;;;;;5412368;26;20015;-65
2024/04/21 03:31:00;;;;;;;1.02;0.40;;;13.00;99.90;;;;;;5404971;26;20132;-65
2024/04/21 03:33:26;;;;;;;0.63;0.25;;;13.00;99.90;;;;;;5414028;26;20446;-65
2024/04/21 03:36:07;;;;;;;2.28;0.40;;;13.00;99.90;;;;;;5414474;26;20010;-65
2024/04/21 03:38:33;;;;;;;1.23;0.20;;;12.90;99.90;;;;;;5412886;26;20051;-65
2024/04/21 03:40:59;;;;;;;4.15;0.35;;;13.00;99.90;;;;;;5411064;26;20438;-65
2024/04/21 03:43:25;;;;;;;0.57;0.30;;;12.80;99.90;;;;;;5410201;26;20042;-65
2024/04/21 03:45:50;;;;;;;1.02;0.40;;;12.90;99.90;;;;;;5405914;26;20007;-65
2024/04/21 03:48:16;;;;;;;1.10;0.35;;;;;;;;;;5414366;26;20085;-65
2024/04/21 03:50:42;;;;;;;1.17;0.30;;;;;;;;;;5410300;26;20017;-65
2024/04/21 03:53:16;;;;;;;0.82;0.30;;;;;;;;;;5414715;26;20006;-65
2024/04/21 03:55:42;;;;;;;0.27;0.27;;;;;;;;;;5404809;26;20022;-65
2024/04/21 03:58:20;;;;;;;1.00;0.30;;;;;;;;;;5405349;26;20000;-66
2024/04/21 04:00:46;;;;;;;0.35;0.30;;;;;;;;;;5408560;26;20000;-65
2024/04/21 04:03:12;;;;;;;0.93;0.30;;;;;;;;;;5394407;26;20004;-65
2024/04/21 04:05:38;;;;;;;0.50;0.30;;;;;;;;;;5386490;26;20053;-64
2024/04/21 04:08:04;;;;;;;0.30;0.20;;;;;;;;;;5414441;26;19999;-65
2024/04/21 04:10:30;;;;;;;0.38;0.30;;;;;;;;;;5417512;26;20318;-65
2024/04/21 04:12:56;;;;;;;0.98;0.20;;;;;;;;;;5416521;26;20014;-65
2024/04/21 04:15:22;;;;;;;2.20;0.40;;;;;;;;;;5412317;26;20004;-65
2024/04/21 04:17:48;;;;;;;0.55;0.30;;;;;;;;;;5417672;26;20039;-65
2024/04/21 04:20:15;;;;;;;0.35;0.30;;;;;;;;;;5418921;26;20447;-65
2024/04/21 04:22:41;;;;;;;1.23;0.60;;;;;;;;;;5409656;26;20005;-65
2024/04/21 04:25:07;;;;;;;0.80;0.40;;;;;;;;;;5417010;26;20340;-65
2024/04/21 04:27:33;;;;;;;1.02;0.55;;;;;;;;;;5415978;26;20014;-65
2024/04/21 04:29:59;;;;;;;1.60;0.45;;;;;;;;;;5403798;26;20014;-65
2024/04/21 04:32:27;;;;;;;0.98;0.47;;;;;;;;;;5417731;26;20003;-65
2024/04/21 04:34:53;;;;;;;0.38;0.15;;;12.90;99.90;;;;;;5416355;26;19999;-65
2024/04/21 04:37:18;;;;;;;0.45;0.20;;;12.60;99.90;;;;;;5415719;26;20000;-65
2024/04/21 04:39:47;;;;;;;0.47;0.35;;;12.60;99.90;;;;;;5416426;26;20003;-65
2024/04/21 04:42:13;;;;;;;1.15;0.20;;;12.70;99.90;;;;;;5412266;26;20022;-64
2024/04/21 04:44:38;;;;;;;1.58;0.40;;;12.60;99.90;;;;;;5388641;26;20000;-65
2024/04/21 04:47:04;;;;;;;0.30;0.10;;;12.60;99.90;;;;;;5403626;26;20015;-65
2024/04/21 04:49:30;;;;;;;0.50;0.28;;;12.60;99.90;;;;;;5417428;26;20029;-65
2024/04/21 04:51:57;;;;;;;0.45;0.20;;;12.50;99.90;;;;;;5395707;26;20507;-65
2024/04/21 04:54:23;;;;;;;1.02;0.25;;;12.50;99.90;;;;;;5403612;26;20014;-65
2024/04/21 04:56:52;;;;;;;0.95;0.30;;;12.50;99.90;;;;;;5409491;26;20028;-65
2024/04/21 04:59:17;;;;;;;1.05;0.20;;;12.40;99.90;;;;;;5412182;26;20012;-64
2024/04/21 05:01:43;;;;;;;0.30;0.22;;;12.40;99.90;;;;;;5409664;26;20000;-65
2024/04/21 05:04:09;;;;;;;2.00;0.30;;;12.40;99.90;;;;;;5391447;26;20036;-65
2024/04/21 05:07:15;;;;;;;0.47;0.20;;;12.50;99.90;;;;;;5401519;26;20019;-65
2024/04/21 05:09:41;;;;;;;0.52;0.32;;;12.60;99.90;;;;;;5396953;26;20053;-65
2024/04/21 05:12:07;;;;;;;0.65;0.30;;;12.50;99.90;;;;;;5411958;26;20015;-64
2024/04/21 05:14:32;;;;;;;0.45;0.30;;;12.50;99.90;;;;;;5406041;26;20000;-65
2024/04/21 05:16:58;;;;;;;0.57;0.52;;;12.50;99.90;;;;;;5416143;26;20003;-65
2024/04/21 05:19:24;;;;;;;0.93;0.40;;;12.60;99.90;;;;;;5416881;26;20088;-65
2024/04/21 05:21:49;;;;;;;1.38;0.40;;;12.50;99.90;;;;;;5406884;26;20011;-65
2024/04/21 05:24:15;;;;;;;0.98;0.57;;;12.60;99.90;;;;;;5416998;26;19999;-65
2024/04/21 05:26:41;;;;;;;0.57;0.40;;;12.60;99.90;;;;;;5409306;26;20333;-65
2024/04/21 05:29:06;;;;;;;0.40;0.40;;;12.70;99.90;;;;;;5390365;26;20008;-65
2024/04/21 05:31:32;;;;;;;2.03;0.40;;;12.70;99.90;;;;;;5384835;26;20004;-65
2024/04/21 05:33:57;;;;;;;1.25;0.50;;;12.70;99.90;;;;;;5395781;26;20000;-65
2024/04/21 05:36:23;;;;;;;2.58;0.70;;;12.80;99.90;;;;;;5391637;26;20004;-65
2024/04/21 05:38:51;;;;;;;2.20;0.90;;;12.80;99.90;;;;;;5392946;26;20012;-65
2024/04/21 05:41:17;;;;;;;2.00;0.88;;;12.90;99.90;;;;;;5413845;26;20000;-64
2024/04/21 05:43:42;;;;;;;3.13;1.00;;;12.80;99.90;;;;;;5414596;26;20043;-65
2024/04/21 05:46:08;;;;;;;4.05;1.17;;;12.70;99.90;;;;;;5416794;26;20079;-65
2024/04/21 05:48:33;;;;;;;4.72;0.93;;;12.60;99.90;;;;;;5391497;26;20018;-65
2024/04/21 05:50:59;;;;;;;4.97;0.90;;;12.60;99.90;;;;;;5416823;26;19999;-64
2024/04/21 05:53:25;;;;;;;2.75;1.15;;;12.60;99.90;;;;;;5416659;26;20003;-65
2024/04/21 05:55:51;;;;;;;2.13;0.93;;;12.60;99.90;;;;;;5416688;26;20470;-65
2024/04/21 05:58:16;;;;;;;4.07;1.00;;;12.70;99.90;;;;;;5416362;26;20022;-65
2024/04/21 06:00:42;;;;;;;1.70;0.80;;;12.70;99.90;;;;;;5416625;26;20024;-65
2024/04/21 06:03:08;;;;;;;1.65;0.55;;;12.80;99.90;;;;;;5414603;26;20049;-64
2024/04/21 06:05:33;;;;;;;0.60;0.50;;;12.80;99.90;;;;;;5400573;26;20040;-65
2024/04/21 06:07:59;;;;;;;0.32;0.32;;;12.80;99.90;;;;;;5414973;26;19999;-68
2024/04/21 06:10:25;;;;;;;0.82;0.30;;;12.80;99.90;;;;;;5391902;26;20000;-67
2024/04/21 06:12:53;;;;;;;0.70;0.40;;;12.70;99.90;;;;;;5409649;26;20426;-66
2024/04/21 06:15:19;;;;;;;0.95;0.50;;;12.80;99.90;;;;;;5404388;26;20067;-65
2024/04/21 06:17:45;;;;;;;1.42;0.40;;;12.80;99.90;;;;;;5406679;26;20014;-65
2024/04/21 06:20:11;;;;;;;0.77;0.50;;;12.70;99.90;;;;;;5408815;26;19995;-65
2024/04/21 06:22:37;;;;;;;3.08;0.52;;;12.70;99.90;;;;;;5415892;26;20438;-66
2024/04/21 06:25:03;;;;;;;0.88;0.30;;;12.80;99.90;;;;;;5411613;26;20438;-65
2024/04/21 06:27:29;;;;;;;1.67;0.50;;;12.70;99.90;;;;;;5404164;26;20014;-65
2024/04/21 06:29:57;;;;;;;1.17;0.60;;;12.80;99.90;;;;;;5413964;26;19996;-65
2024/04/21 06:32:23;;;;;;;4.35;1.00;;;12.80;99.90;;;;;;5414225;26;20450;-65
2024/04/21 06:34:48;;;;;;;1.10;0.47;;;12.80;99.90;;;;;;5410066;26;19995;-65
2024/04/21 06:37:29;;;;;;;1.33;0.55;;;12.80;99.90;;;;;;5403317;26;20450;-65
2024/04/21 06:39:55;;;;;;;0.98;0.40;;;12.80;99.90;;;;;;5412987;26;20004;-65
2024/04/21 06:42:22;;;;;;;1.08;0.57;;;12.80;99.90;;;;;;5411345;26;20034;-65
2024/04/21 06:44:48;;;;;;;1.05;0.38;;;12.90;99.90;;;;;;5405703;26;20007;-65
2024/04/21 06:47:14;;;;;;;0.70;0.40;;;12.90;99.90;;;;;;5410218;26;20024;-65
2024/04/21 06:49:40;;;;;;;1.65;0.40;;;13.10;99.90;;;;;;5411474;26;19999;-66
2024/04/21 06:52:06;;;;;;;0.88;0.40;;;13.00;99.90;;;;;;5411464;26;19995;-66
2024/04/21 06:54:32;;;;;;;0.52;0.30;;;13.10;99.90;;;;;;5413276;26;20018;-66
2024/04/21 06:57:01;;;;;;;0.82;0.20;;;13.00;99.90;;;;;;5406979;26;20011;-66
2024/04/21 06:59:27;;;;;;;0.82;0.30;;;13.10;99.90;;;;;;5416164;26;19999;-66
2024/04/21 07:01:53;;;;;;;0.75;0.40;;;13.10;99.90;;;;;;5415789;26;20407;-66
2024/04/21 07:04:20;;;;;;;0.77;0.20;;;13.10;99.90;;;;;;5416152;26;20007;-66
2024/04/21 07:06:46;;;;;;;0.65;0.30;;;13.20;99.90;;;;;;5416033;26;20043;-66
2024/04/21 07:09:11;;;;;;;1.42;0.30;;;13.30;99.90;;;;;;5409931;26;20471;-66
2024/04/21 07:11:37;;;;;;;0.30;0.30;;;13.40;99.90;;;;;;5415812;26;20018;-66
2024/04/21 07:14:03;;;;;;;1.13;0.30;;;13.40;99.90;;;;;;5395214;26;20022;-66
2024/04/21 07:16:28;;;;;;;0.20;0.17;;;13.50;99.90;;;;;;5413798;26;20011;-66
2024/04/21 07:18:54;;;;;;;2.08;0.10;;;13.50;99.90;;;;;;5406515;26;20011;-66
2024/04/21 07:21:19;;;;;;;0.45;0.17;;;13.50;99.90;;;;;;5414434;26;20321;-65
2024/04/21 07:23:45;;;;;;;1.17;0.20;;;13.60;99.90;;;;;;5404021;26;20000;-66
2024/04/21 07:26:10;;;;;;;1.38;0.30;;;13.60;99.90;;;;;;5412859;26;20010;-65
2024/04/21 07:28:36;;;;;;;1.30;0.25;;;13.60;99.90;;;;;;5396929;26;20008;-65
2024/04/21 07:31:02;;;;;;;0.40;0.25;;;13.70;99.90;;;;;;5406608;26;19999;-66
2024/04/21 07:33:27;;;;;;;0.90;0.13;;;13.80;99.90;;;;;;5394164;26;19996;-66
2024/04/21 07:35:54;;;;;;;1.00;0.20;;;13.80;99.90;;;;;;5410684;26;20419;-66
2024/04/21 07:38:19;;;;;;;0.65;0.20;;;13.80;99.90;;;;;;5409797;26;20044;-66
2024/04/21 07:40:45;;;;;;;0.47;0.30;;;13.80;99.90;;;;;;5406610;26;20364;-67
2024/04/21 07:43:11;;;;;;;3.30;0.28;;;13.80;99.90;;;;;;5415333;26;19996;-67
2024/04/21 07:45:37;;;;;;;0.90;0.40;;;13.90;99.90;;;;;;5429343;26;20004;-55
2024/04/21 07:48:03;;;;;;;0.50;0.20;;;13.80;99.90;;;;;;5405162;26;20129;-65
2024/04/21 07:50:32;;;;;;;2.63;0.32;;;13.90;99.90;;;;;;5410686;26;20027;-65
2024/04/21 07:52:58;;;;;;;0.98;0.30;;;13.90;99.90;;;;;;5409080;26;20006;-65
2024/04/21 07:55:24;;;;;;;0.20;0.20;;;14.00;99.90;;;;;;5415369;26;20003;-65
2024/04/21 07:57:49;;;;;;;0.77;0.20;;;14.00;99.90;;;;;;5409129;26;20007;-65
2024/04/21 08:00:15;;;;;;;1.13;0.22;;;14.00;99.90;;;;;;5396165;26;20403;-65
2024/04/21 08:02:41;;;;;;;3.10;0.50;;;14.00;99.90;;;;;;5397619;26;20008;-65
2024/04/21 08:05:07;;;;;;;4.22;1.90;;;14.10;99.90;;;;;;5412156;26;20000;-66
2024/04/21 08:07:32;;;;;;;1.38;0.90;;;14.20;99.90;;;;;;5391344;26;20010;-71
2024/04/21 08:09:58;;;;;;;2.03;1.60;;;14.30;99.90;;;;;;5410424;26;19999;-65
2024/04/21 08:12:23;;;;;;;0.60;0.60;;;14.30;99.90;;;;;;5412015;26;20000;-65
2024/04/21 08:14:49;;;;;;;1.67;0.50;;;14.30;99.90;;;;;;5405958;26;20000;-64
2024/04/21 08:17:15;;;;;;;1.45;0.45;;;14.30;99.90;;;;;;5404322;26;20510;-64
2024/04/21 08:19:40;;;;;;;0.95;0.30;;;14.30;99.90;;;;;;5414675;26;19999;-64
2024/04/21 08:22:06;;;;;;;1.85;0.50;;;14.40;99.90;;;;;;5391563;26;20008;-64
2024/04/21 08:24:32;;;;;;;0.80;0.30;;;14.40;99.90;;;;;;5409697;26;20000;-65
2024/04/21 08:26:57;;;;;;;1.58;0.30;;;14.50;99.90;;;;;;5412822;26;20730;-64
2024/04/21 08:29:23;;;;;;;0.93;0.35;;;14.60;99.90;;;;;;5413920;26;19999;-65
2024/04/21 08:31:49;;;;;;;0.63;0.40;;;14.70;99.90;;;;;;5391362;26;20000;-65
2024/04/21 08:34:16;;;;;;;1.83;0.50;;;14.90;99.90;;;;;;5404290;26;20140;-65
2024/04/21 08:36:41;;;;;;;1.60;0.47;;;14.90;99.90;;;;;;5413494;26;20028;-64
2024/04/21 08:39:07;;;;;;;0.55;0.28;;;14.90;99.90;;;;;;5414439;26;20398;-64
2024/04/21 08:41:39;;;;;;;0.88;0.60;;;15.00;99.90;;;;;;5413251;26;20015;-64
2024/04/21 08:44:11;;;;;;;2.53;0.45;;;15.00;99.90;;;;;;5413859;26;20449;-64
2024/04/21 08:46:37;;;;;;;0.82;0.30;;;15.00;99.90;;;;;;5411427;26;20467;-65
2024/04/21 08:49:05;;;;;;;0.40;0.38;;;15.00;99.90;;;;;;5414097;26;20071;-64
2024/04/21 08:51:34;;;;;;;1.35;0.50;;;15.10;99.90;;;;;;5414992;26;20007;-63
2024/04/21 08:54:00;;;;;;;0.75;0.40;;;15.20;99.90;;;;;;5417290;26;20003;-64
2024/04/21 08:56:29;;;;;;;0.70;0.47;;;15.30;99.90;;;;;;5417769;26;20014;-64
2024/04/21 08:58:55;;;;;;;0.32;0.32;;;15.40;99.90;;;;;;5417368;26;20007;-64
2024/04/21 09:01:22;;;;;;;0.47;0.32;;;15.40;99.90;;;;;;5417427;26;20015;-64
2024/04/21 09:03:49;;;;;;;0.60;0.60;;;15.40;99.90;;;;;;5417085;26;20004;-63
2024/04/21 09:06:24;;;;;;;1.33;0.55;;;15.40;99.90;;;;;;5392230;26;20314;-63
2024/04/21 09:08:50;;;;;;;;;;;15.40;99.90;;;;;;5417840;26;20004;-63
2024/04/21 09:11:16;;;;;;;0.80;0.60;;;15.40;99.90;;;;;;5416555;26;19925;-63
2024/04/21 09:13:41;;;;;;;1.42;0.55;;;15.40;99.90;;;;;;5416661;26;20075;-63
2024/04/21 09:16:07;;;;;;;1.85;0.50;;;15.40;99.90;;;;;;5416659;26;20387;-64
2024/04/21 09:18:32;;;;;;;0.80;0.50;;;15.50;99.90;;;;;;5417027;26;20039;-64
2024/04/21 09:20:58;;;;;;;0.90;0.43;;;15.50;99.90;;;;;;5417027;26;19999;-63
2024/04/21 09:23:25;;;;;;;1.08;0.38;;;15.60;99.90;;;;;;5416789;26;19995;-63
2024/04/21 09:25:50;;;;;;;0.50;0.25;;;15.60;99.90;;;;;;5417086;26;20287;-64
2024/04/21 09:28:16;;;;;;;0.40;0.40;;;15.60;99.90;;;;;;5416317;26;19995;-64
2024/04/21 09:30:41;;;;;;;0.52;0.30;;;15.60;99.90;;;;;;5416774;26;19995;-64
2024/04/21 09:33:08;;;;;;;1.05;0.20;;;15.50;99.90;;;;;;5416604;26;20007;-64
2024/04/21 09:35:57;;;;;;;3.55;0.38;;;15.50;99.90;;;;;;5414730;26;20009;-64
2024/04/21 09:38:23;;;;;;;0.93;0.22;;;15.60;99.90;;;;;;5414124;26;20080;-64
2024/04/21 09:40:53;;;;;;;3.03;0.47;;;15.60;99.90;;;;;;5417021;26;20004;-64
2024/04/21 09:43:21;;;;;;;0.25;0.10;;;15.80;99.90;;;;;;5409492;26;20000;-64
2024/04/21 09:45:47;;;;;;;0.80;0.47;;;15.80;99.90;;;;;;5416959;26;20054;-64
2024/04/21 09:48:14;;;;;;;1.30;0.32;;;15.90;99.90;;;;;;5413471;26;20023;-64
2024/04/21 09:50:43;;;;;;;1.52;0.22;;;16.00;99.90;;;;;;5414763;26;20018;-63
2024/04/21 09:53:10;;;;;;;0.57;0.30;;;16.10;99.90;;;;;;5398723;26;20059;-63
2024/04/21 09:55:37;;;;;;;0.52;0.38;;;16.10;99.90;;;;;;5412619;26;20014;-64
2024/04/21 09:58:07;;;;;;;2.58;0.50;;;16.10;99.90;;;;;;5416324;26;20003;-63
2024/04/21 10:00:36;;;;;;;1.35;0.50;;;16.10;99.90;;;;;;5416605;26;20007;-63
2024/04/21 10:03:03;;;;;;;3.72;1.90;;;16.10;99.90;;;;;;5415779;26;20012;-64
2024/04/21 10:05:30;;;;;;;4.63;1.35;;;16.20;99.90;;;;;;5416607;26;20000;-64
2024/04/21 10:07:58;;;;;;;0.50;0.45;;;16.30;99.90;;;;;;5415922;26;20460;-64
2024/04/21 10:10:25;;;;;;;0.70;0.68;;;16.40;99.90;;;;;;5415891;26;20000;-64
2024/04/21 10:12:51;;;;;;;1.25;0.40;;;16.50;99.90;;;;;;5408753;26;20076;-63
2024/04/21 10:15:23;;;;;;;0.45;0.35;;;16.60;99.90;;;;;;5415700;26;20008;-63
2024/04/21 10:17:56;;;;;;;1.02;0.50;;;16.60;99.90;;;;;;5391286;26;20019;-63
2024/04/21 10:20:39;;;;;;;0.55;0.55;;;16.80;99.90;;;;;;5415946;26;20018;-64
2024/04/21 10:23:09;;;;;;;2.88;0.60;;;16.80;99.90;;;;;;5408951;26;20018;-64
2024/04/21 10:25:36;;;;;;;0.73;0.40;;;16.90;99.90;;;;;;5414257;26;19999;-63
2024/04/21 10:28:09;;;;;;;0.73;0.50;;;17.00;99.90;;;;;;5415590;26;20079;-63
2024/04/21 10:30:36;;;;;;;0.40;0.32;;;17.20;99.90;;;;;;5414713;26;20019;-63
2024/04/21 10:33:04;;;;;;;1.10;0.45;;;17.30;99.90;;;;;;5415928;26;20372;-63
2024/04/21 10:35:51;;;;;;;0.60;0.43;;;17.40;99.90;;;;;;5416051;26;20022;-63
2024/04/21 10:38:47;;;;;;;1.08;0.55;;;17.50;99.90;;;;;;5416002;26;20076;-64
2024/04/21 10:41:13;;;;;;;0.38;0.17;;;17.50;99.90;;;;;;5403621;26;19999;-63
2024/04/21 10:43:42;;;;;;;0.30;0.17;;;17.70;99.90;;;;;;5399826;26;20077;-63
2024/04/21 10:46:08;;;;;;;0.70;0.45;;;17.80;99.90;;;;;;5409887;26;20410;-64
2024/04/21 10:48:33;;;;;;;2.10;0.30;;;17.70;99.90;;;;;;5411399;26;20010;-64
2024/04/21 10:50:59;;;;;;;1.15;0.32;;;17.90;99.90;;;;;;5414104;26;20330;-63
2024/04/21 10:53:26;;;;;;;1.00;0.20;;;18.00;99.90;;;;;;5398096;26;19995;-63
2024/04/21 10:55:56;;;;;;;0.45;0.30;;;18.10;99.90;;;;;;5413445;26;19999;-63
2024/04/21 10:58:21;;;;;;;1.05;0.43;;;18.30;99.90;;;;;;5413286;26;20040;-63
2024/04/21 11:00:47;;;;;;;1.10;0.38;;;18.20;99.90;;;;;;5414079;26;19999;-64
2024/04/21 11:03:44;;;;;;;0.60;0.40;;;18.30;99.90;;;;;;5414529;26;20008;-63
2024/04/21 11:06:10;;;;;;;0.95;0.55;;;18.40;99.90;;;;;;5405933;26;20287;-63
2024/04/21 11:08:36;;;;;;;1.25;0.77;;;18.50;99.90;;;;;;5414865;26;20105;-64
2024/04/21 11:11:02;;;;;;;0.60;0.55;;;18.40;99.90;;;;;;5414987;26;20016;-54
2024/04/21 11:13:28;;;;;;;0.43;0.43;;;18.40;99.90;;;;;;5414001;26;19999;-54
2024/04/21 11:15:53;;;;;;;1.10;0.60;;;18.20;99.90;;;;;;5412375;26;20010;-55
2024/04/21 11:18:19;;;;;;;2.28;0.68;;;18.30;99.90;;;;;;5414987;26;20552;-59
2024/04/21 11:20:45;;;;;;;0.40;0.40;;;18.20;99.90;;;;;;5414525;26;20405;-51
2024/04/21 11:23:14;;;;;;;0.80;0.60;;;18.20;99.90;;;;;;5413724;26;20472;-54
2024/04/21 11:25:40;;;;;;;2.08;0.63;;;18.20;99.90;;;;;;5388529;26;20024;-52
2024/04/21 11:28:15;;;;;;;1.77;1.00;;;18.30;99.90;;;;;;5405067;26;20349;-51
2024/04/21 11:30:42;;;;;;;0.73;0.52;;;18.40;99.90;;;;;;5411879;26;20007;-62
2024/04/21 11:33:08;;;;;;;1.23;0.35;;;18.30;99.90;;;;;;5388469;26;19999;-51
2024/04/21 11:35:35;;;;;;;1.17;0.70;;;18.30;99.90;;;;;;5390172;26;20460;-57
2024/04/21 11:38:00;;;;;;;0.52;0.52;;;18.40;99.90;;;;;;5400858;26;20011;-59
2024/04/21 11:40:26;;;;;;;0.80;0.40;;;18.40;99.90;;;;;;5414243;26;20000;-53
2024/04/21 11:42:51;;;;;;;0.90;0.52;;;18.30;99.90;;;;;;5408900;26;20019;-60
2024/04/21 11:45:28;;;;;;;1.10;0.68;;;18.40;99.90;;;;;;5405740;26;20003;-56
2024/04/21 11:47:54;;;;;;;1.23;0.45;;;18.50;99.90;;;;;;5398190;26;20519;-57
2024/04/21 11:50:24;;;;;;;2.10;0.50;;;18.60;99.90;;;;;;5413907;26;20004;-57
2024/04/21 11:52:51;;;;;;;1.75;0.60;;;;;;;;;;5397931;26;20028;-57
2024/04/21 11:55:17;;;;;;;0.75;0.60;;;;;;;;;;5402201;26;20007;-58
2024/04/21 11:57:43;;;;;;;1.88;0.80;;;;;;;;;;5401964;26;20372;-57
2024/04/21 12:00:09;;;;;;;1.70;1.30;;;;;;;;;;5417202;26;20014;-59
2024/04/21 12:02:35;;;;;;;2.13;1.00;;;;;;;;;;5397127;26;20050;-58
2024/04/21 12:05:01;;;;;;;1.70;1.48;;;;;;;;;;5412993;26;20000;-58
2024/04/21 12:07:27;;;;;;;1.63;1.17;;;18.60;99.90;;;;;;5414506;26;20010;-58
2024/04/21 12:10:05;;;;;;;1.73;0.70;;;23.70;99.90;;;;;;5412943;26;19996;-58
2024/04/21 12:12:31;;;;;;;0.57;0.55;;;;;;;;;;5408753;26;20084;-58
2024/04/21 12:14:57;;;;;;;1.10;0.60;;;;;;;;;;5406215;26;20349;-58
2024/04/21 12:17:23;;;;;;;1.13;1.02;;;;;;;;;;5410265;26;20031;-58
2024/04/21 12:19:50;;;;;;;1.20;1.10;;;;;;;;;;5413794;26;20130;-59
2024/04/21 12:22:17;;;;;;;0.60;0.60;;;;;;;;;;5410779;26;20054;-59
2024/04/21 12:24:43;;;;;;;1.83;1.17;;;;;;;;;;5410261;26;20314;-60
2024/04/21 12:27:15;;;;;;;1.58;0.80;;;;;;;;;;5408420;26;20039;-59
2024/04/21 12:29:41;;;;;;;0.80;0.60;;;;;;;;;;5407354;26;20457;-59
2024/04/21 12:32:07;;;;;;;1.02;0.93;;;;;;;;;;5417289;26;20015;-58
2024/04/21 12:34:33;;;;;;;2.83;1.63;;;;;;;;;;5402400;26;20312;-59
2024/04/21 12:36:59;;;;;;;1.20;1.10;;;;;;;;;;5396059;26;19999;-58
2024/04/21 12:39:25;;;;;;;0.90;0.90;;;;;;;;;;5411838;26;20074;-57
2024/04/21 12:41:52;;;;;;;0.75;0.75;;;;;;;;;;5434507;26;20017;-57
2024/04/21 12:44:18;;;;;;;0.90;0.90;;;;;;;;;;5411144;26;20527;-58
2024/04/21 12:46:44;;;;;;;1.10;0.60;;;;;;;;;;5405396;26;20014;-57
2024/04/21 12:49:10;;;;;;;0.65;0.65;;;;;;;;;;5391986;26;20000;-57
2024/04/21 12:51:36;;;;;;;1.25;0.90;;;;;;;;;;5413984;26;20004;-57
2024/04/21 12:54:02;;;;;;;1.42;1.25;;;22.90;99.90;;;;;;5409359;26;20525;-57
2024/04/21 12:56:27;;;;;;;1.38;1.27;;;22.40;99.90;;;;;;5406159;26;20008;-57
2024/04/21 12:58:53;;;;;;;0.88;0.73;;;;;;;;;;5411831;26;20114;-58
2024/04/21 13:01:20;;;;;;;1.55;1.27;;;;;;;;;;5415881;26;20003;-58
2024/04/21 13:03:46;;;;;;;1.35;1.20;;;;;;;;;;5402745;26;20420;-57
2024/04/21 13:06:12;;;;;;;1.15;1.15;;;;;;;;;;5407939;26;20004;-57